createdAt,value
2018-06-07T00:15:14.931Z,23.5
2018-06-07T00:32:05.940Z,23.5
2018-06-07T00:48:56.944Z,23.5
2018-06-07T01:05:47.747Z,23.5
2018-06-07T01:22:38.353Z,23.2
2018-06-07T01:39:29.092Z,23.5
2018-06-07T01:56:19.806Z,23.2
2018-06-07T02:13:10.536Z,23.2
2018-06-07T02:30:01.314Z,23.2
2018-06-07T02:46:51.887Z,23.2
2018-06-07T03:03:42.474Z,23.2
2018-06-07T03:20:32.960Z,23.2
2018-06-07T03:37:23.521Z,23.2
2018-06-07T03:54:14.056Z,23.2
2018-06-07T04:11:04.619Z,23.2
2018-06-07T04:27:55.191Z,23.2
2018-06-07T04:44:45.753Z,23.2
2018-06-07T05:01:36.700Z,23.2
2018-06-07T05:13:24.611Z,23.8
2018-06-07T05:30:16.230Z,24.2
2018-06-07T05:47:08.102Z,24.5
2018-06-07T06:04:00.290Z,24.8
2018-06-07T06:20:53.010Z,25.1
2018-06-07T06:37:45.901Z,25.4
2018-06-07T06:54:39.191Z,25.4
2018-06-07T07:11:32.467Z,25.8
2018-06-07T07:28:25.839Z,25.8
2018-06-07T07:45:19.331Z,25.8
2018-06-07T08:02:12.787Z,25.4
2018-06-07T08:19:06.273Z,25.8
2018-06-07T08:36:00.100Z,26.1
2018-06-07T08:52:54.102Z,26.1
2018-06-07T09:09:48.388Z,26.4
2018-06-07T09:26:42.755Z,26.4
2018-06-07T09:43:37.816Z,26.4
2018-06-07T10:00:31.809Z,26.4
2018-06-07T10:17:26.502Z,26.7
2018-06-07T10:34:21.276Z,26.7
2018-06-07T10:51:16.359Z,26.7
2018-06-07T11:08:11.439Z,27.0
2018-06-07T11:25:06.834Z,27.4
2018-06-07T11:42:02.292Z,27.4
2018-06-07T11:58:57.719Z,27.4
2018-06-07T12:15:53.359Z,27.4
2018-06-07T12:32:49.143Z,27.4
2018-06-07T12:49:45.173Z,27.7
2018-06-07T13:06:41.097Z,27.7
2018-06-07T13:23:37.159Z,27.7
2018-06-07T13:40:33.971Z,28.0
2018-06-07T13:57:29.775Z,27.7
2018-06-07T14:14:26.124Z,27.7
2018-06-07T14:31:22.159Z,27.7
2018-06-07T14:48:18.228Z,27.7
2018-06-07T15:05:14.354Z,27.7
2018-06-07T15:22:10.552Z,27.7
2018-06-07T15:39:06.946Z,28.0
2018-06-07T15:56:03.315Z,28.0
2018-06-07T16:07:54.900Z,27.7
2018-06-07T16:24:50.922Z,27.4
2018-06-07T16:41:46.591Z,27.0
2018-06-07T16:51:55.741Z,26.4
2018-06-07T17:08:50.497Z,26.4
2018-06-07T17:24:03.675Z,26.4
2018-06-07T17:40:58.239Z,26.4
2018-06-07T17:57:52.900Z,26.4
2018-06-07T18:01:15.838Z,26.4
2018-06-07T18:18:10.264Z,26.1
2018-06-07T18:35:04.310Z,25.8
2018-06-07T18:51:58.423Z,25.8
2018-06-07T19:08:52.487Z,25.8
2018-06-07T19:22:23.449Z,25.1
2018-06-07T19:39:16.684Z,24.8
2018-06-07T19:56:09.665Z,24.8
2018-06-07T20:13:03.146Z,24.8
2018-06-07T20:29:55.482Z,24.8
2018-06-07T20:46:48.539Z,24.8
2018-06-07T21:03:42.085Z,25.1
2018-06-07T21:20:35.173Z,24.8
2018-06-07T21:37:27.488Z,24.8
2018-06-07T21:54:19.762Z,24.5
2018-06-07T22:11:11.783Z,24.5
2018-06-07T22:28:03.754Z,24.5
2018-06-07T22:44:55.666Z,24.2
2018-06-07T23:01:47.411Z,24.2
2018-06-07T23:18:39.215Z,24.2
2018-06-07T23:35:31.058Z,24.5
2018-06-07T23:52:23.081Z,24.5
